createdAt,value
2019-05-06T00:01:37.811Z,101354.54
2019-05-06T00:04:07.797Z,101352.19
2019-05-06T00:06:38.064Z,101346.95
2019-05-06T00:09:08.793Z,101351.34
2019-05-06T00:11:38.842Z,101345.41
2019-05-06T00:14:08.838Z,101350.56
2019-05-06T00:16:38.810Z,101344.56
2019-05-06T00:19:08.796Z,101348.67
2019-05-06T00:21:38.948Z,101345.24
2019-05-06T00:24:08.979Z,101346.70
2019-05-06T00:26:57.774Z,101346.62
2019-05-06T00:29:30.074Z,101341.06
2019-05-06T00:32:00.056Z,101338.30
2019-05-06T00:34:30.034Z,101339.55
2019-05-06T00:37:00.011Z,101339.33
2019-05-06T00:39:47.564Z,101345.72
2019-05-06T00:42:29.749Z,101337.42
2019-05-06T00:44:59.721Z,101338.73
2019-05-06T00:47:29.782Z,101338.50
2019-05-06T00:49:59.810Z,101329.77
2019-05-06T00:52:29.797Z,101326.50
2019-05-06T00:54:59.752Z,101329.33
2019-05-06T00:57:48.686Z,101325.82
2019-05-06T01:00:24.265Z,101328.28
2019-05-06T01:02:54.393Z,101331.56
2019-05-06T01:05:24.601Z,101324.68
2019-05-06T01:07:55.049Z,101332.13
2019-05-06T01:10:25.209Z,101326.34
2019-05-06T01:13:01.460Z,101330.59
2019-05-06T01:15:31.595Z,101324.59
2019-05-06T01:18:01.585Z,101317.09
2019-05-06T01:20:33.795Z,101320.56
2019-05-06T01:23:03.822Z,101318.64
2019-05-06T01:25:34.576Z,101319.17
2019-05-06T01:28:04.934Z,101319.28
2019-05-06T01:30:35.171Z,101314.11
2019-05-06T01:33:05.398Z,101328.06
2019-05-06T01:35:35.423Z,101328.41
2019-05-06T01:38:24.239Z,101330.73
2019-05-06T01:41:13.618Z,101326.14
2019-05-06T01:43:43.945Z,101323.03
2019-05-06T01:46:14.088Z,101325.85
2019-05-06T01:48:49.867Z,101326.67
2019-05-06T01:51:20.581Z,101326.03
2019-05-06T01:53:50.859Z,101322.30
2019-05-06T01:56:20.921Z,101325.05
2019-05-06T01:58:50.901Z,101321.88
2019-05-06T02:01:20.931Z,101320.75
2019-05-06T02:03:50.937Z,101314.13
2019-05-06T02:06:21.359Z,101314.50
2019-05-06T02:08:53.811Z,101311.02
2019-05-06T02:11:24.129Z,101305.42
2019-05-06T02:13:54.172Z,101306.23
2019-05-06T02:16:24.222Z,101308.22
2019-05-06T02:18:54.209Z,101305.33
2019-05-06T02:21:43.845Z,101303.32
2019-05-06T02:24:19.831Z,101301.55
2019-05-06T02:26:49.800Z,101305.33
2019-05-06T02:29:21.651Z,101305.77
2019-05-06T02:32:25.496Z,101311.87
2019-05-06T02:34:55.173Z,101304.48
2019-05-06T02:37:50.055Z,101305.50
2019-05-06T02:40:24.808Z,101308.85
2019-05-06T02:42:55.023Z,101303.41
2019-05-06T02:45:25.625Z,101304.59
2019-05-06T02:48:26.557Z,101304.08
2019-05-06T02:50:59.349Z,101301.80
2019-05-06T02:53:29.322Z,101302.33
2019-05-06T02:55:59.306Z,101300.86
2019-05-06T02:58:29.270Z,101296.80
2019-05-06T03:00:59.266Z,101296.86
2019-05-06T03:03:29.337Z,101305.95
2019-05-06T03:05:59.326Z,101301.73
2019-05-06T03:08:29.647Z,101303.66
2019-05-06T03:10:59.629Z,101289.73
2019-05-06T03:13:29.618Z,101295.72
2019-05-06T03:15:59.586Z,101281.74
2019-05-06T03:18:32.521Z,101285.22
2019-05-06T03:21:18.989Z,101284.17
2019-05-06T03:23:54.355Z,101290.01
2019-05-06T03:26:24.543Z,101296.03
2019-05-06T03:28:54.502Z,101294.70
2019-05-06T03:31:26.381Z,101287.60
2019-05-06T03:34:21.878Z,101290.81
2019-05-06T03:36:38.511Z,101287.55
2019-05-06T03:38:59.589Z,101283.01
2019-05-06T03:41:29.663Z,101284.52
2019-05-06T03:43:59.625Z,101278.59
2019-05-06T03:46:48.566Z,101282.46
2019-05-06T03:49:18.618Z,101284.99
2019-05-06T03:51:48.618Z,101272.12
2019-05-06T03:54:19.292Z,101268.17
2019-05-06T03:56:49.640Z,101271.44
2019-05-06T03:59:23.344Z,101277.11
2019-05-06T04:01:53.490Z,101277.96
2019-05-06T04:04:23.647Z,101268.59
2019-05-06T04:06:54.012Z,101277.13
2019-05-06T04:09:24.296Z,101268.98
2019-05-06T04:11:54.665Z,101276.76
2019-05-06T04:14:25.032Z,101275.01
2019-05-06T04:17:04.029Z,101275.08
2019-05-06T04:19:46.871Z,101275.80
2019-05-06T04:22:35.816Z,101279.50
2019-05-06T04:25:16.983Z,101280.83
2019-05-06T04:27:50.249Z,101280.31
2019-05-06T04:30:24.055Z,101280.78
2019-05-06T04:32:53.311Z,101278.84
2019-05-06T04:35:23.634Z,101277.67
2019-05-06T04:37:54.185Z,101276.53
2019-05-06T04:40:24.256Z,101286.45
2019-05-06T04:42:54.232Z,101278.52
2019-05-06T04:45:24.200Z,101275.74
2019-05-06T04:47:54.276Z,101274.22
2019-05-06T04:50:24.582Z,101272.36
2019-05-06T04:53:05.003Z,101269.67
2019-05-06T04:55:35.448Z,101277.54
2019-05-06T04:58:06.353Z,101276.27
2019-05-06T05:00:37.019Z,101277.66
2019-05-06T05:03:07.130Z,101277.19
2019-05-06T05:05:37.138Z,101283.20
2019-05-06T05:08:07.163Z,101287.91
2019-05-06T05:10:44.168Z,101285.73
2019-05-06T05:13:34.761Z,101286.34
2019-05-06T05:16:26.609Z,101279.91
2019-05-06T05:19:02.861Z,101285.81
2019-05-06T05:21:32.830Z,101288.13
2019-05-06T05:24:02.815Z,101286.39
2019-05-06T05:26:32.776Z,101288.11
2019-05-06T05:29:03.050Z,101280.87
2019-05-06T05:31:33.379Z,101278.03
2019-05-06T05:34:03.604Z,101279.03
2019-05-06T05:36:33.572Z,101271.11
2019-05-06T05:39:03.747Z,101274.97
2019-05-06T05:41:33.778Z,101276.88
2019-05-06T05:44:12.032Z,101269.93
2019-05-06T05:46:43.830Z,101270.92
2019-05-06T05:49:32.455Z,101276.50
2019-05-06T05:52:03.373Z,101266.34
2019-05-06T05:54:33.607Z,101281.48
2019-05-06T05:57:03.697Z,101273.93
2019-05-06T05:59:33.679Z,101284.98
2019-05-06T06:02:04.033Z,101279.22
2019-05-06T06:04:34.180Z,101279.13
2019-05-06T06:07:04.158Z,101281.75
2019-05-06T06:09:41.819Z,101279.75
2019-05-06T06:12:12.052Z,101268.38
2019-05-06T06:14:53.421Z,101276.38
2019-05-06T06:17:42.886Z,101272.83
2019-05-06T06:20:32.620Z,101267.50
2019-05-06T06:23:07.986Z,101256.64
2019-05-06T06:25:38.583Z,101267.33
2019-05-06T06:28:08.561Z,101276.19
2019-05-06T06:30:48.589Z,101268.48
2019-05-06T06:33:18.776Z,101270.86
2019-05-06T06:36:04.603Z,101266.31
2019-05-06T06:38:52.711Z,101270.32
2019-05-06T06:41:23.020Z,101274.77
2019-05-06T06:43:56.637Z,101266.30
2019-05-06T06:46:26.645Z,101269.86
2019-05-06T06:48:56.627Z,101267.47
2019-05-06T06:51:26.679Z,101270.87
2019-05-06T06:53:56.651Z,101280.23
2019-05-06T06:57:03.200Z,101269.55
2019-05-06T06:59:29.359Z,101270.02
2019-05-06T07:02:18.541Z,101269.35
2019-05-06T07:05:02.465Z,101266.33
2019-05-06T07:07:41.246Z,101267.06
2019-05-06T07:10:12.136Z,101262.50
2019-05-06T07:12:42.713Z,101260.51
2019-05-06T07:15:12.846Z,101267.82
2019-05-06T07:17:42.831Z,101255.89
2019-05-06T07:20:14.564Z,101252.34
2019-05-06T07:22:44.572Z,101261.42
2019-05-06T07:25:14.593Z,101256.23
2019-05-06T07:27:44.601Z,101258.49
2019-05-06T07:30:15.151Z,101254.65
2019-05-06T07:32:45.199Z,101247.19
2019-05-06T07:35:15.177Z,101253.64
2019-05-06T07:37:45.193Z,101255.31
2019-05-06T07:40:15.204Z,101251.50
2019-05-06T07:42:48.247Z,101250.72
2019-05-06T07:45:28.773Z,101247.22
2019-05-06T07:48:07.073Z,101248.82
2019-05-06T07:50:37.061Z,101247.14
2019-05-06T07:53:07.090Z,101256.61
2019-05-06T07:55:37.901Z,101251.29
2019-05-06T07:58:08.111Z,101253.38
2019-05-06T08:00:38.166Z,101251.63
2019-05-06T08:03:08.189Z,101246.08
2019-05-06T08:05:51.583Z,101241.24
2019-05-06T08:08:09.862Z,101239.06
2019-05-06T08:10:42.232Z,101238.31
2019-05-06T08:13:12.995Z,101243.39
2019-05-06T08:15:43.414Z,101236.97
2019-05-06T08:18:13.492Z,101241.25
2019-05-06T08:20:43.485Z,101238.79
2019-05-06T08:23:32.525Z,101232.09
2019-05-06T08:26:12.681Z,101231.23
2019-05-06T08:28:40.504Z,101235.13
2019-05-06T08:31:06.089Z,101236.83
2019-05-06T08:33:36.080Z,101240.45
2019-05-06T08:36:13.993Z,101237.11
2019-05-06T08:38:56.690Z,101237.89
2019-05-06T08:41:26.870Z,101249.72
2019-05-06T08:43:57.011Z,101237.70
2019-05-06T08:46:26.994Z,101234.91
2019-05-06T08:48:57.118Z,101242.89
2019-05-06T08:51:48.815Z,101237.95
2019-05-06T08:54:28.354Z,101239.11
2019-05-06T08:56:58.346Z,101239.98
2019-05-06T08:59:28.368Z,101235.59
2019-05-06T09:01:59.500Z,101235.34
2019-05-06T09:04:31.959Z,101239.23
2019-05-06T09:07:02.964Z,101227.36
2019-05-06T09:09:33.198Z,101224.88
2019-05-06T09:12:03.208Z,101217.66
2019-05-06T09:14:33.249Z,101218.50
2019-05-06T09:17:03.728Z,101212.81
2019-05-06T09:19:33.734Z,101213.81
2019-05-06T09:22:03.813Z,101215.33
2019-05-06T09:24:33.817Z,101216.67
2019-05-06T09:27:22.603Z,101213.09
2019-05-06T09:29:55.506Z,101221.25
2019-05-06T09:32:35.945Z,101220.07
2019-05-06T09:35:06.170Z,101218.33
2019-05-06T09:37:36.166Z,101220.26
2019-05-06T09:40:06.830Z,101213.93
2019-05-06T09:42:36.808Z,101226.68
2019-05-06T09:45:07.077Z,101214.30
2019-05-06T09:47:48.658Z,101209.56
2019-05-06T09:50:23.430Z,101216.34
2019-05-06T09:52:53.434Z,101223.81
2019-05-06T09:55:33.623Z,101193.89
2019-05-06T09:58:05.188Z,101193.89
2019-05-06T10:00:39.170Z,101183.22
2019-05-06T10:03:09.140Z,101195.70
2019-05-06T10:05:39.159Z,101186.77
2019-05-06T10:08:09.165Z,101174.73
2019-05-06T10:10:53.660Z,101189.78
2019-05-06T10:13:12.820Z,101189.78
2019-05-06T10:15:43.118Z,101183.78
2019-05-06T10:18:13.566Z,101190.80
2019-05-06T10:20:45.060Z,101201.60
2019-05-06T10:23:15.334Z,101205.53
2019-05-06T10:25:45.466Z,101197.16
2019-05-06T10:28:33.487Z,101197.16
2019-05-06T10:31:05.418Z,101216.51
2019-05-06T10:33:37.113Z,101216.51
2019-05-06T10:36:07.153Z,101214.16
2019-05-06T10:38:59.494Z,101216.22
2019-05-06T10:41:33.474Z,101225.47
2019-05-06T10:44:25.597Z,101227.90
2019-05-06T10:46:55.658Z,101233.31
2019-05-06T10:49:25.671Z,101248.05
2019-05-06T10:52:02.235Z,101247.22
2019-05-06T10:54:32.342Z,101247.70
2019-05-06T10:57:08.536Z,101251.66
2019-05-06T10:59:38.517Z,101243.87
2019-05-06T11:02:33.650Z,101235.47
2019-05-06T11:05:04.062Z,101226.58
2019-05-06T11:07:35.394Z,101231.31
2019-05-06T11:10:05.774Z,101221.48
2019-05-06T11:12:35.869Z,101230.42
2019-05-06T11:15:06.682Z,101213.96
2019-05-06T11:17:36.731Z,101206.58
2019-05-06T11:20:10.262Z,101215.20
2019-05-06T11:22:38.629Z,101211.64
2019-05-06T11:25:08.683Z,101207.17
2019-05-06T11:27:41.839Z,101207.17
2019-05-06T11:30:18.269Z,101217.56
2019-05-06T11:32:58.388Z,101214.44
2019-05-06T11:35:52.835Z,101233.86
2019-05-06T11:38:22.987Z,101255.09
2019-05-06T11:40:53.353Z,101285.85
2019-05-06T11:43:23.504Z,101290.48
2019-05-06T11:45:53.553Z,101283.36
2019-05-06T11:48:23.578Z,101285.22
2019-05-06T11:50:57.228Z,101280.16
2019-05-06T11:53:27.254Z,101280.33
2019-05-06T11:55:57.252Z,101282.48
2019-05-06T11:58:49.593Z,101270.54
2019-05-06T12:01:43.474Z,101274.31
2019-05-06T12:04:13.950Z,101273.46
2019-05-06T12:06:44.100Z,101272.22
2019-05-06T12:09:16.935Z,101270.73
2019-05-06T12:11:46.010Z,101275.36
2019-05-06T12:14:15.971Z,101262.78
2019-05-06T12:16:46.019Z,101259.22
2019-05-06T12:19:16.212Z,101268.81
2019-05-06T12:21:46.225Z,101263.66
2019-05-06T12:24:16.241Z,101260.29
2019-05-06T12:26:46.744Z,101268.58
2019-05-06T12:29:16.764Z,101259.61
2019-05-06T12:31:52.821Z,101263.38
2019-05-06T12:34:22.181Z,101262.41
2019-05-06T12:36:55.713Z,101267.11
2019-05-06T12:39:34.681Z,101257.86
2019-05-06T12:42:12.667Z,101262.12
2019-05-06T12:44:52.950Z,101257.73
2019-05-06T12:47:42.516Z,101258.92
2019-05-06T12:50:12.107Z,101255.09
2019-05-06T12:52:44.091Z,101264.73
2019-05-06T12:55:21.099Z,101259.13
2019-05-06T12:57:46.236Z,101254.52
2019-05-06T13:00:16.448Z,101257.86
2019-05-06T13:02:46.460Z,101261.44
2019-05-06T13:05:17.113Z,101274.20
2019-05-06T13:07:47.978Z,101278.17
2019-05-06T13:10:22.837Z,101265.33
2019-05-06T13:13:01.859Z,101269.00
2019-05-06T13:15:32.134Z,101255.82
2019-05-06T13:18:06.850Z,101254.52
2019-05-06T13:20:35.185Z,101256.66
2019-05-06T13:23:27.817Z,101259.53
2019-05-06T13:25:57.919Z,101257.47
2019-05-06T13:28:30.588Z,101260.53
2019-05-06T13:31:15.994Z,101260.54
2019-05-06T13:33:40.746Z,101264.59
2019-05-06T13:36:13.176Z,101265.55
2019-05-06T13:38:43.404Z,101271.08
2019-05-06T13:41:13.396Z,101280.55
2019-05-06T13:43:47.980Z,101274.42
2019-05-06T13:46:29.671Z,101261.53
2019-05-06T13:49:17.368Z,101262.62
2019-05-06T13:52:03.402Z,101265.61
2019-05-06T13:54:32.106Z,101262.41
2019-05-06T13:57:03.023Z,101258.45
2019-05-06T13:59:35.114Z,101257.13
2019-05-06T14:02:23.061Z,101259.51
2019-05-06T14:04:53.119Z,101253.55
2019-05-06T14:07:24.421Z,101250.94
2019-05-06T14:09:54.776Z,101241.69
2019-05-06T14:12:24.779Z,101249.30
2019-05-06T14:14:54.822Z,101247.86
2019-05-06T14:17:24.819Z,101255.19
2019-05-06T14:19:54.831Z,101258.89
2019-05-06T14:22:24.804Z,101247.27
2019-05-06T14:25:09.117Z,101251.96
2019-05-06T14:27:39.108Z,101253.84
2019-05-06T14:30:19.643Z,101252.25
2019-05-06T14:32:49.648Z,101260.56
2019-05-06T14:35:19.650Z,101260.02
2019-05-06T14:37:49.630Z,101253.34
2019-05-06T14:40:22.562Z,101263.06
2019-05-06T14:42:53.187Z,101269.34
2019-05-06T14:45:23.266Z,101275.01
2019-05-06T14:47:53.262Z,101269.20
2019-05-06T14:50:31.683Z,101271.73
2019-05-06T14:52:55.155Z,101275.40
2019-05-06T14:55:29.708Z,101271.66
2019-05-06T14:57:59.699Z,101272.57
2019-05-06T15:00:31.873Z,101290.09
2019-05-06T15:03:02.212Z,101280.22
2019-05-06T15:05:35.976Z,101276.88
2019-05-06T15:08:04.057Z,101274.12
2019-05-06T15:10:34.153Z,101277.09
2019-05-06T15:13:04.312Z,101273.47
2019-05-06T15:15:34.416Z,101278.62
2019-05-06T15:18:04.399Z,101277.17
2019-05-06T15:20:34.448Z,101279.70
2019-05-06T15:23:04.657Z,101279.56
2019-05-06T15:25:34.743Z,101282.81
2019-05-06T15:28:04.753Z,101299.72
2019-05-06T15:30:42.939Z,101291.91
2019-05-06T15:33:14.770Z,101290.95
2019-05-06T15:36:02.411Z,101291.61
2019-05-06T15:38:32.323Z,101285.59
2019-05-06T15:41:02.388Z,101278.73
2019-05-06T15:43:33.324Z,101280.28
2019-05-06T15:46:03.463Z,101276.97
2019-05-06T15:48:33.497Z,101278.81
2019-05-06T15:51:03.508Z,101277.05
2019-05-06T15:53:33.480Z,101287.61
2019-05-06T15:56:03.658Z,101285.81
2019-05-06T15:58:33.641Z,101289.39
2019-05-06T16:01:03.663Z,101293.64
2019-05-06T16:03:33.723Z,101294.98
2019-05-06T16:06:03.717Z,101299.07
2019-05-06T16:08:33.728Z,101292.64
2019-05-06T16:11:03.767Z,101288.86
2019-05-06T16:13:33.790Z,101289.11
2019-05-06T16:16:06.864Z,101286.06
2019-05-06T16:18:35.513Z,101282.67
2019-05-06T16:21:05.536Z,101287.27
2019-05-06T16:23:42.263Z,101283.84
2019-05-06T16:26:12.533Z,101286.45
2019-05-06T16:28:44.943Z,101284.02
2019-05-06T16:31:14.341Z,101278.52
2019-05-06T16:33:44.360Z,101280.71
2019-05-06T16:36:14.662Z,101286.88
2019-05-06T16:38:44.662Z,101290.54
2019-05-06T16:41:16.361Z,101296.61
2019-05-06T16:43:46.493Z,101296.84
2019-05-06T16:46:16.533Z,101310.19
2019-05-06T16:48:46.533Z,101308.32
2019-05-06T16:51:16.536Z,101297.27
2019-05-06T16:53:46.561Z,101310.94
2019-05-06T16:56:23.014Z,101302.69
2019-05-06T16:58:55.915Z,101293.99
2019-05-06T17:01:26.019Z,101283.42
2019-05-06T17:04:19.694Z,101284.29
2019-05-06T17:06:49.723Z,101297.19
2019-05-06T17:09:23.877Z,101308.13
2019-05-06T17:11:51.533Z,101309.08
2019-05-06T17:14:21.527Z,101311.16
2019-05-06T17:16:52.687Z,101306.94
2019-05-06T17:19:23.097Z,101301.13
2019-05-06T17:21:53.279Z,101298.61
2019-05-06T17:24:23.261Z,101296.52
2019-05-06T17:26:56.196Z,101292.88
2019-05-06T17:29:42.912Z,101295.69
2019-05-06T17:32:27.532Z,101290.73
2019-05-06T17:34:57.987Z,101292.48
2019-05-06T17:37:55.716Z,101293.42
2019-05-06T17:40:25.739Z,101293.42
2019-05-06T17:42:55.796Z,101289.98
2019-05-06T17:45:57.935Z,101290.45
2019-05-06T17:48:37.944Z,101286.05
2019-05-06T17:51:13.688Z,101290.36
2019-05-06T17:53:46.525Z,101292.34
2019-05-06T17:56:16.543Z,101291.53
2019-05-06T17:58:46.577Z,101292.80
2019-05-06T18:01:19.565Z,101291.80
2019-05-06T18:03:49.618Z,101292.38
2019-05-06T18:06:19.596Z,101297.85
2019-05-06T18:08:49.613Z,101296.19
2019-05-06T18:11:19.599Z,101303.33
2019-05-06T18:13:49.602Z,101296.95
2019-05-06T18:16:19.585Z,101300.03
2019-05-06T18:18:52.150Z,101297.45
2019-05-06T18:21:23.021Z,101296.11
2019-05-06T18:23:53.244Z,101299.56
2019-05-06T18:26:23.242Z,101304.41
2019-05-06T18:28:53.270Z,101306.04
2019-05-06T18:31:23.288Z,101307.09
2019-05-06T18:33:53.294Z,101310.42
2019-05-06T18:36:23.302Z,101308.51
2019-05-06T18:38:53.381Z,101308.84
2019-05-06T18:41:23.699Z,101308.26
2019-05-06T18:43:53.800Z,101314.77
2019-05-06T18:46:23.821Z,101316.27
2019-05-06T18:48:53.865Z,101313.59
2019-05-06T18:51:23.903Z,101319.27
2019-05-06T18:53:53.986Z,101321.89
2019-05-06T18:56:23.996Z,101321.80
2019-05-06T18:58:54.024Z,101324.35
2019-05-06T19:01:24.088Z,101319.10
2019-05-06T19:04:09.924Z,101319.69
2019-05-06T19:06:41.873Z,101328.55
2019-05-06T19:09:28.130Z,101324.69
2019-05-06T19:11:58.228Z,101329.44
2019-05-06T19:14:28.256Z,101331.16
2019-05-06T19:16:58.259Z,101325.63
2019-05-06T19:19:28.312Z,101332.02
2019-05-06T19:21:58.306Z,101334.22
2019-05-06T19:24:28.358Z,101334.43
2019-05-06T19:26:58.393Z,101335.11
2019-05-06T19:29:28.418Z,101336.52
2019-05-06T19:31:58.455Z,101337.12
2019-05-06T19:34:28.489Z,101344.84
2019-05-06T19:36:58.541Z,101340.35
2019-05-06T19:39:28.595Z,101342.42
2019-05-06T19:41:58.704Z,101347.41
2019-05-06T19:44:28.725Z,101343.92
2019-05-06T19:46:58.750Z,101343.27
2019-05-06T19:49:28.743Z,101343.22
2019-05-06T19:51:58.779Z,101342.03
2019-05-06T19:54:28.760Z,101341.54
2019-05-06T19:56:58.775Z,101346.75
2019-05-06T19:59:28.750Z,101339.41
2019-05-06T20:01:58.776Z,101342.20
2019-05-06T20:04:28.819Z,101343.53
2019-05-06T20:07:07.416Z,101344.06
2019-05-06T20:09:55.734Z,101346.39
2019-05-06T20:12:32.986Z,101347.05
2019-05-06T20:15:20.851Z,101348.52
2019-05-06T20:17:52.103Z,101348.98
2019-05-06T20:20:22.869Z,101348.78
2019-05-06T20:22:52.950Z,101350.38
2019-05-06T20:25:23.084Z,101353.55
2019-05-06T20:27:53.116Z,101348.32
2019-05-06T20:30:23.152Z,101352.14
2019-05-06T20:32:53.258Z,101347.34
2019-05-06T20:35:23.254Z,101348.02
2019-05-06T20:37:53.538Z,101343.80
2019-05-06T20:40:23.615Z,101338.91
2019-05-06T20:42:53.628Z,101337.09
2019-05-06T20:45:23.730Z,101334.16
2019-05-06T20:47:53.758Z,101335.93
2019-05-06T20:50:27.067Z,101328.53
2019-05-06T20:52:59.255Z,101334.70
2019-05-06T20:55:32.615Z,101335.55
2019-05-06T20:58:02.759Z,101335.16
2019-05-06T21:00:33.562Z,101332.30
2019-05-06T21:03:03.673Z,101334.61
2019-05-06T21:05:33.674Z,101335.63
2019-05-06T21:08:03.687Z,101340.59
2019-05-06T21:10:33.709Z,101337.68
2019-05-06T21:13:03.755Z,101339.77
2019-05-06T21:15:33.750Z,101335.96
2019-05-06T21:18:04.534Z,101341.63
2019-05-06T21:20:34.622Z,101346.56
2019-05-06T21:23:04.787Z,101346.75
2019-05-06T21:25:34.781Z,101346.00
2019-05-06T21:28:04.789Z,101348.66
2019-05-06T21:30:34.780Z,101345.67
2019-05-06T21:33:05.073Z,101343.73
2019-05-06T21:35:35.472Z,101347.12
2019-05-06T21:38:05.540Z,101348.28
2019-05-06T21:40:35.556Z,101347.76
2019-05-06T21:43:05.715Z,101345.30
2019-05-06T21:45:35.773Z,101345.34
2019-05-06T21:48:05.843Z,101344.43
2019-05-06T21:50:36.171Z,101340.75
2019-05-06T21:53:06.258Z,101347.81
2019-05-06T21:55:36.443Z,101349.53
2019-05-06T21:58:06.430Z,101345.48
2019-05-06T22:00:54.721Z,101345.28
2019-05-06T22:03:24.795Z,101345.28
2019-05-06T22:05:54.889Z,101339.38
2019-05-06T22:08:25.043Z,101337.38
2019-05-06T22:10:55.110Z,101336.77
2019-05-06T22:13:25.120Z,101338.72
2019-05-06T22:15:55.103Z,101343.02
2019-05-06T22:18:25.184Z,101341.94
2019-05-06T22:21:13.045Z,101341.42
2019-05-06T22:23:52.071Z,101337.68
2019-05-06T22:26:23.061Z,101330.62
2019-05-06T22:28:53.525Z,101338.37
2019-05-06T22:31:24.579Z,101330.22
2019-05-06T22:33:54.892Z,101338.98
2019-05-06T22:36:24.993Z,101333.45
2019-05-06T22:38:55.067Z,101335.27
2019-05-06T22:41:25.596Z,101328.83
2019-05-06T22:43:55.763Z,101333.27
2019-05-06T22:46:25.718Z,101328.02
2019-05-06T22:48:55.879Z,101326.10
2019-05-06T22:51:25.866Z,101324.05
2019-05-06T22:53:55.919Z,101326.02
2019-05-06T22:56:25.907Z,101327.02
2019-05-06T22:58:55.869Z,101333.28
2019-05-06T23:01:44.064Z,101332.80
2019-05-06T23:04:15.256Z,101331.31
2019-05-06T23:06:45.213Z,101332.52
2019-05-06T23:09:15.225Z,101340.44
2019-05-06T23:11:45.205Z,101340.75
2019-05-06T23:14:28.026Z,101334.56
2019-05-06T23:16:46.893Z,101342.63
2019-05-06T23:19:16.879Z,101343.82
2019-05-06T23:21:46.894Z,101344.66
2019-05-06T23:24:16.861Z,101343.17
2019-05-06T23:26:46.885Z,101347.89
2019-05-06T23:29:16.855Z,101337.59
2019-05-06T23:31:46.935Z,101340.56
2019-05-06T23:34:16.914Z,101342.94
2019-05-06T23:37:23.359Z,101341.09
2019-05-06T23:40:42.910Z,101344.58
2019-05-06T23:43:48.895Z,101342.97
2019-05-06T23:46:55.005Z,101349.70
2019-05-06T23:50:03.393Z,101350.45
2019-05-06T23:53:08.917Z,101343.46
2019-05-06T23:56:14.769Z,101348.26
2019-05-06T23:58:44.759Z,101348.22
